Porter, Indiana
Current Conditions -  °F | °C
As of 4:56 AM on Monday 20 Oct 2014 (Local Time) from KVPZ Reporting Station
Few Clouds Few Clouds  
Wind Chill: 44°   Ceiling: Unl
Heat Index: 48°   Visibility: 10mi
Dew Point: 43°   Wind: 8mph
Humidity: 83%   Direction: 210°SSW
Pressure: 29.86"   Gusts: NA
Location:  41.6139°N, 87.0454°W
Report Text: KVPZ 200956Z AUTO 21007KT 10SM FEW065 09/06 A2986 RMK AO2 SLP112 T00890061 TSNO
Loading
Personal Weather Stations






























Interactive Weather Map
Tropical Storm Tracking
New forecast layout! Learn more

10-Day Weather Forecast

Advertisements
Track Severe Weather on mobile